Pagrindinis puslapis
METAR-TAF:

METAR-TAF

Oro uostai :

Rygge, Norvegija

platuma: 59-23N, ilguma: 010-47E, Aukštis: 5 m

Dabartinis oras

Ataskaita buvo paskelbta 12 minutes, ne 06:50 UTC
Vėjas 2 kt nuo kintamojo kryptimis
Temperatūra 15°C
Drėgmė 67%
Slėgis 1012 hPa
Matomumas 10 km arba daugiau

METAR: ENRY 230650Z AUTO VRB02KT 9999 FEW016/// SCT030/// BKN035/// 15/09 Q1012

Laikas: 09:02 (07:02 UTC)

Prognozė

Ataskaita buvo paskelbta 2 valandos ir 2 minutes, ne 05:00 UTC
Prognozė galioja nuo 23 metu 06 UTC su 24 metu 06 UTC
Vėjas 5 kt iš Šiaurės
Matomumas 10 km arba daugiau
nėra debesų žemiau 1500 m ir nėra kamuolinių lietaus debesų
Tapsmas
nuo 23 metu 09 UTC su 23 metu 11 UTC
Vėjas 10 kt iš Pietų/Pietvakarių
Tapsmas
nuo 23 metu 20 UTC su 23 metu 22 UTC
Vėjas 5 kt iš Šiaurės/Šiaurės Rytų
Tikimybė 40%
nuo 24 metu 00 UTC su 24 metu 04 UTC
Matomumas: 0800 m
ne aukštis 200 ft
rūkas,

TAF: ENRY 230500Z 2306/2406 36005KT CAVOK BECMG 2309/2311 20010KT BECMG 2320/2322 02005KT PROB40 2400/2404 0800 FG VV002

Orai ataskaitas ir orų prognozės (METAR, TAF).

turimą stotys yra geltonos ir raudonos taškus žemėlapyje.

Perkelti pele per norėdami pamatyti stoties vardą.

Tada spustelėkite, norėdami matyti oro stebėjimo ir prognozės.

Norėdami pakeisti žemėlapį: spustelėkite ant žalios mygtukų su juodo kryžiaus žemyn,; žalią mygtuką su brūkšneliu, jei norite nutolinti; arba žalių rodyklių gretimoms žemėlapius.


METAR-TAF: